Impacts TAF Board
For situational awareness. Not to be used for flight planning purposes.
IDs:

KSTL - St Louis/Lambert Int, MO, US

Issued at 0256 UTC 10 Dec 2018
Updated at 0520 UTC 10 Dec 2018
Potential Impact None Slight Moderate High
Time0451Z 10/06Z 10/07Z 10/08Z 10/09Z 10/10Z 10/11Z 10/12Z 10/13Z 10/14Z 10/15Z 10/16Z 10/17Z 10/18Z>>
Type OBS PRVL PRVL PRVL PRVL PRVL PRVL PRVL PRVL PRVL PRVL PRVL PRVL PRVL
VIS 8 >6 >6 >6 >6 >6 >6 >6 >6 >6 >6 >6 >6 >6
CIG -- -- -- -- -- -- -- -- -- -- -- -- -- --
Cover FEW SKC SKC SKC SKC SKC SKC SKC SKC SKC SKC SKC SKC SKC
FltCat VFR VFR VFR VFR VFR VFR VFR VFR VFR VFR VFR VFR VFR VFR
WX -- -- -- -- -- -- -- -- -- -- -- -- -- --
WDir VRB VRB VRB VRB VRB VRB VRB VRB VRB VRB VRB VRB VRB VRB
WSpd 0 4 4 4 4 4 4 4 4 4 4 4 4 4
WGst -- -- -- -- -- -- -- -- -- -- -- -- -- --
Raw TAF
KSTL 100256Z 1003/1106 VRB04KT P6SM SKC

Raw METAR
KSTL 100451Z 00000KT 8SM FEW250 M07/M08 A3034 RMK AO2 SLP290 T10671083
KSTL 100351Z 31005KT 7SM FEW250 M06/M07 A3034 RMK AO2 SLP289 T10561072
KSTL 100251Z 32003KT 8SM FEW250 M04/M07 A3033 RMK AO2 SLP286 T10441067 53005

METAR Board
Radar Display
Forecast Discussion
For situational awareness. Not to be used for flight planning purposes.